createdAt,value
2022-12-09T00:01:32.049Z,32.75
2022-12-09T00:04:04.545Z,33.35
2022-12-09T00:06:35.370Z,33.53
2022-12-09T00:09:05.062Z,33.95
2022-12-09T00:11:34.951Z,33.00
2022-12-09T00:14:03.651Z,33.75
2022-12-09T00:16:35.933Z,32.30
2022-12-09T00:19:04.790Z,32.50
2022-12-09T00:21:34.338Z,33.28
2022-12-09T00:24:03.799Z,33.60
2022-12-09T00:26:33.030Z,32.22
2022-12-09T00:29:03.121Z,32.05
2022-12-09T00:31:34.380Z,32.50
2022-12-09T00:34:04.540Z,33.28
2022-12-09T00:36:33.946Z,31.33
2022-12-09T00:39:02.737Z,31.52
2022-12-09T00:41:31.000Z,31.65
2022-12-09T00:44:00.381Z,31.50
2022-12-09T00:46:28.825Z,31.58
2022-12-09T00:48:57.751Z,32.00
2022-12-09T00:51:26.046Z,31.05
2022-12-09T00:53:56.264Z,31.63
2022-12-09T00:56:25.534Z,33.67
2022-12-09T00:58:53.785Z,31.55
2022-12-09T01:03:37.076Z,31.30
2022-12-09T01:06:11.318Z,33.00
2022-12-09T01:08:40.211Z,30.80
2022-12-09T01:11:12.684Z,32.35
2022-12-09T01:13:41.907Z,32.47
2022-12-09T01:16:20.474Z,33.45
2022-12-09T01:18:50.280Z,30.45
2022-12-09T01:21:18.270Z,32.78
2022-12-09T01:23:46.473Z,33.88
2022-12-09T01:26:14.843Z,34.25
2022-12-09T01:28:42.715Z,32.28
2022-12-09T01:31:14.860Z,32.55
2022-12-09T01:33:43.657Z,32.75
2022-12-09T01:36:13.043Z,33.33
2022-12-09T01:41:10.075Z,32.10
2022-12-09T01:43:39.796Z,32.85
2022-12-09T01:46:07.838Z,33.78
2022-12-09T01:48:40.403Z,33.88
2022-12-09T01:51:16.957Z,34.20
2022-12-09T01:53:47.130Z,35.33
2022-12-09T01:56:20.507Z,34.40
2022-12-09T01:58:50.289Z,35.95
2022-12-09T02:01:19.068Z,35.38
2022-12-09T02:03:47.012Z,37.20
2022-12-09T02:06:15.745Z,35.42
2022-12-09T02:08:45.529Z,33.73
2022-12-09T02:11:37.558Z,34.17
2022-12-09T02:14:16.847Z,35.08
2022-12-09T02:16:57.226Z,36.00
2022-12-09T02:19:35.546Z,35.92
2022-12-09T02:22:05.221Z,33.92
2022-12-09T02:24:43.720Z,34.85
2022-12-09T02:27:20.044Z,35.63
2022-12-09T02:29:51.138Z,37.08
2022-12-09T02:32:23.949Z,36.47
2022-12-09T02:34:55.849Z,36.95
2022-12-09T02:37:30.758Z,36.92
2022-12-09T02:39:58.517Z,37.65
2022-12-09T02:42:30.115Z,39.67
2022-12-09T02:45:02.538Z,37.53
2022-12-09T02:47:34.457Z,39.92
2022-12-09T02:50:06.065Z,39.17
2022-12-09T02:52:35.156Z,38.80
2022-12-09T02:55:05.656Z,39.58
2022-12-09T02:57:41.804Z,39.45
2022-12-09T03:00:14.864Z,39.50
2022-12-09T03:02:45.744Z,40.28
2022-12-09T03:05:14.092Z,40.03
2022-12-09T03:07:44.968Z,38.33
2022-12-09T03:10:34.342Z,39.15
2022-12-09T03:13:05.885Z,39.95
2022-12-09T03:15:39.396Z,39.38
2022-12-09T03:18:09.310Z,39.00
2022-12-09T03:20:39.259Z,38.83
2022-12-09T03:23:10.450Z,39.05
2022-12-09T03:25:49.602Z,38.25
2022-12-09T03:28:34.580Z,38.90
2022-12-09T03:31:04.420Z,38.97
2022-12-09T03:33:36.423Z,38.85
2022-12-09T03:36:11.378Z,38.00
2022-12-09T03:38:41.482Z,38.75
2022-12-09T03:41:22.060Z,36.83
2022-12-09T03:48:48.838Z,33.80
2022-12-09T03:51:36.986Z,37.03
2022-12-09T03:54:18.286Z,36.83
2022-12-09T03:56:48.732Z,36.88
2022-12-09T03:59:17.397Z,35.53
2022-12-09T04:01:46.062Z,36.08
2022-12-09T04:04:14.603Z,36.20
2022-12-09T04:06:43.149Z,36.47
2022-12-09T04:09:12.610Z,35.83
2022-12-09T04:11:41.221Z,34.63
2022-12-09T04:14:15.097Z,35.90
2022-12-09T04:16:43.824Z,35.10
2022-12-09T04:19:12.364Z,34.78
2022-12-09T04:21:40.627Z,33.28
2022-12-09T04:24:08.975Z,31.35
2022-12-09T04:26:36.886Z,31.33
2022-12-09T04:29:05.111Z,31.60
2022-12-09T04:31:34.271Z,30.33
2022-12-09T04:34:08.889Z,29.92
2022-12-09T04:36:38.726Z,27.33
2022-12-09T04:39:06.867Z,28.30
2022-12-09T04:41:34.743Z,28.13
2022-12-09T04:44:03.784Z,26.77
2022-12-09T04:46:32.557Z,26.80
2022-12-09T04:49:00.645Z,26.98
2022-12-09T04:51:31.374Z,27.85
2022-12-09T04:54:05.041Z,28.33
2022-12-09T04:56:33.916Z,27.77
2022-12-09T04:59:02.595Z,27.00
2022-12-09T05:01:31.701Z,25.65
2022-12-09T05:04:00.765Z,28.05
2022-12-09T05:06:29.400Z,27.30
2022-12-09T05:09:02.776Z,27.75
2022-12-09T05:11:31.245Z,25.70
2022-12-09T05:14:01.248Z,28.20
2022-12-09T05:16:34.380Z,27.08
2022-12-09T05:19:04.173Z,27.95
2022-12-09T05:21:33.664Z,26.52
2022-12-09T05:24:05.059Z,26.08
2022-12-09T05:26:33.970Z,28.52
2022-12-09T05:29:03.162Z,26.45
2022-12-09T05:31:32.534Z,27.90
2022-12-09T05:34:00.652Z,27.15
2022-12-09T05:36:29.151Z,27.40
2022-12-09T05:38:57.844Z,28.45
2022-12-09T05:41:26.292Z,28.08
2022-12-09T05:43:54.848Z,28.02
2022-12-09T05:46:23.369Z,28.75
2022-12-09T05:48:51.602Z,27.30
2022-12-09T05:51:23.825Z,28.08
2022-12-09T05:53:53.286Z,27.98
2022-12-09T05:56:22.404Z,27.65
2022-12-09T05:58:50.967Z,27.77
2022-12-09T06:01:19.959Z,29.33
2022-12-09T06:03:48.654Z,28.48
2022-12-09T06:06:18.803Z,27.30
2022-12-09T06:08:48.647Z,28.45
2022-12-09T06:11:20.084Z,28.30
2022-12-09T06:13:50.002Z,27.95
2022-12-09T06:16:22.411Z,30.35
2022-12-09T06:18:51.386Z,28.52
2022-12-09T06:21:20.998Z,29.10
2022-12-09T06:23:50.168Z,28.73
2022-12-09T06:26:20.330Z,28.92
2022-12-09T06:28:48.311Z,28.38
2022-12-09T06:31:16.683Z,28.23
2022-12-09T06:34:01.190Z,26.55
2022-12-09T06:36:32.877Z,27.10
2022-12-09T06:39:10.204Z,28.77
2022-12-09T06:41:45.614Z,29.63
2022-12-09T06:44:19.876Z,27.83
2022-12-09T06:46:49.808Z,28.75
2022-12-09T06:49:19.123Z,26.85
2022-12-09T06:51:47.747Z,25.35
2022-12-09T06:54:15.959Z,26.15
2022-12-09T06:56:44.232Z,27.42
2022-12-09T06:59:12.667Z,25.88
2022-12-09T07:01:41.886Z,26.52
2022-12-09T07:04:13.463Z,28.90
2022-12-09T07:06:46.144Z,28.33
2022-12-09T07:09:15.762Z,30.02
2022-12-09T07:11:49.523Z,30.90
2022-12-09T07:14:19.399Z,30.75
2022-12-09T07:16:47.983Z,31.00
2022-12-09T07:19:18.195Z,31.58
2022-12-09T07:21:47.857Z,30.77
2022-12-09T07:24:16.109Z,30.35
2022-12-09T07:26:44.053Z,31.67
2022-12-09T07:29:11.779Z,32.95
2022-12-09T07:31:40.577Z,32.15
2022-12-09T07:34:08.698Z,30.35
2022-12-09T07:36:38.055Z,31.33
2022-12-09T07:39:17.749Z,29.98
2022-12-09T07:41:46.103Z,30.63
2022-12-09T07:44:14.312Z,32.38
2022-12-09T07:46:43.023Z,33.28
2022-12-09T07:49:11.926Z,31.65
2022-12-09T07:51:40.332Z,31.33
2022-12-09T07:54:13.059Z,30.73
2022-12-09T07:56:42.139Z,31.80
2022-12-09T07:59:10.494Z,31.45
2022-12-09T08:01:38.591Z,30.38
2022-12-09T08:04:07.326Z,31.10
2022-12-09T08:06:35.838Z,30.77
2022-12-09T08:09:10.440Z,33.47
2022-12-09T08:11:38.779Z,33.45
2022-12-09T08:14:12.339Z,34.22
2022-12-09T08:16:42.017Z,34.00
2022-12-09T08:19:10.291Z,34.03
2022-12-09T08:21:39.039Z,32.63
2022-12-09T08:24:08.070Z,33.05
2022-12-09T08:26:40.110Z,32.50
2022-12-09T08:29:09.236Z,32.53
2022-12-09T08:31:41.023Z,31.52
2022-12-09T08:34:10.276Z,29.50
2022-12-09T08:36:38.703Z,30.27
2022-12-09T08:39:07.015Z,30.80
2022-12-09T08:41:47.288Z,31.70
2022-12-09T08:46:44.902Z,29.63
2022-12-09T08:49:19.253Z,28.77
2022-12-09T08:51:48.381Z,29.58
2022-12-09T08:54:16.774Z,30.92
2022-12-09T08:56:49.286Z,28.95
2022-12-09T08:59:17.897Z,29.42
2022-12-09T09:01:46.112Z,29.15
2022-12-09T09:04:15.580Z,27.58
2022-12-09T09:06:45.266Z,29.83
2022-12-09T09:09:15.246Z,28.63
2022-12-09T09:11:44.043Z,30.60
2022-12-09T09:14:13.322Z,29.60
2022-12-09T09:16:43.250Z,30.25
2022-12-09T09:19:16.561Z,29.65
2022-12-09T09:21:44.555Z,30.48
2022-12-09T09:24:14.168Z,28.70
2022-12-09T09:26:42.950Z,29.23
2022-12-09T09:29:12.630Z,30.55
2022-12-09T09:31:40.975Z,31.08
2022-12-09T09:34:10.192Z,28.27
2022-12-09T09:36:38.444Z,27.67
2022-12-09T09:39:06.233Z,23.45
2022-12-09T09:41:52.659Z,24.70
2022-12-09T09:44:30.444Z,25.50
2022-12-09T09:46:59.359Z,23.83
2022-12-09T09:49:57.146Z,25.55
2022-12-09T09:52:26.917Z,26.88
2022-12-09T09:54:55.542Z,24.87
2022-12-09T09:57:23.500Z,26.65
2022-12-09T10:00:00.794Z,26.33
2022-12-09T10:02:49.321Z,24.88
2022-12-09T10:05:24.082Z,26.48
2022-12-09T10:07:58.149Z,25.20
2022-12-09T10:10:48.409Z,24.98
2022-12-09T10:13:18.812Z,25.08
2022-12-09T10:16:10.304Z,25.15
2022-12-09T10:18:43.943Z,25.50
2022-12-09T10:21:22.573Z,26.65
2022-12-09T10:23:50.820Z,24.50
2022-12-09T10:26:30.198Z,25.63
2022-12-09T10:29:05.061Z,25.75
2022-12-09T10:31:35.998Z,27.27
2022-12-09T10:34:04.831Z,25.98
2022-12-09T10:36:36.054Z,25.58
2022-12-09T10:39:06.045Z,25.90
2022-12-09T10:41:55.937Z,26.42
2022-12-09T10:44:28.262Z,25.30
2022-12-09T10:47:04.199Z,26.20
2022-12-09T10:49:34.811Z,26.88
2022-12-09T10:52:05.497Z,28.02
2022-12-09T10:54:35.054Z,28.60
2022-12-09T10:57:08.367Z,28.58
2022-12-09T10:59:37.601Z,29.45
2022-12-09T11:02:20.231Z,27.88
2022-12-09T11:04:49.281Z,28.33
2022-12-09T11:07:19.096Z,27.42
2022-12-09T11:09:49.087Z,26.42
2022-12-09T11:12:20.467Z,26.17
2022-12-09T11:14:54.066Z,26.98
2022-12-09T11:17:32.419Z,24.83
2022-12-09T11:20:07.466Z,26.67
2022-12-09T11:22:40.802Z,25.65
2022-12-09T11:25:12.924Z,25.92
2022-12-09T11:27:50.855Z,26.30
2022-12-09T11:30:29.620Z,27.63
2022-12-09T11:32:58.683Z,27.15
2022-12-09T11:35:36.522Z,25.65
2022-12-09T11:38:14.533Z,26.45
2022-12-09T11:40:42.687Z,24.40
2022-12-09T11:43:10.915Z,27.17
2022-12-09T11:45:40.030Z,26.08
2022-12-09T11:48:32.827Z,24.67
2022-12-09T11:50:58.070Z,24.65
2022-12-09T11:53:30.466Z,23.42
2022-12-09T11:56:08.273Z,22.95
2022-12-09T11:58:43.733Z,23.48
2022-12-09T12:01:18.129Z,24.05
2022-12-09T12:03:49.284Z,24.35
2022-12-09T12:06:20.475Z,25.25
2022-12-09T12:08:57.798Z,23.90
2022-12-09T12:11:30.530Z,25.17
2022-12-09T12:14:14.875Z,27.50
2022-12-09T12:16:45.832Z,25.80
2022-12-09T12:19:16.474Z,27.35
2022-12-09T12:21:54.993Z,25.95
2022-12-09T12:24:41.669Z,24.88
2022-12-09T12:27:16.214Z,25.15
2022-12-09T12:29:47.929Z,25.58
2022-12-09T12:32:23.134Z,25.13
2022-12-09T12:34:55.642Z,23.55
2022-12-09T12:37:34.221Z,22.98
2022-12-09T12:40:05.429Z,25.38
2022-12-09T12:42:39.464Z,25.75
2022-12-09T12:45:44.164Z,23.40
2022-12-09T12:48:27.147Z,22.77
2022-12-09T12:51:18.068Z,22.45
2022-12-09T12:54:04.335Z,22.80
2022-12-09T12:56:42.296Z,21.90
2022-12-09T12:59:15.186Z,21.80
2022-12-09T13:01:46.021Z,21.95
2022-12-09T13:04:23.246Z,20.42
2022-12-09T13:06:51.709Z,21.17
2022-12-09T13:09:24.727Z,21.67
2022-12-09T13:12:07.301Z,20.15
2022-12-09T13:14:41.794Z,20.88
2022-12-09T13:17:14.381Z,20.63
2022-12-09T13:19:50.025Z,21.02
2022-12-09T13:22:21.221Z,19.90
2022-12-09T13:24:59.803Z,20.55
2022-12-09T13:27:28.265Z,21.02
2022-12-09T13:30:11.545Z,19.27
2022-12-09T13:32:50.259Z,18.50
2022-12-09T13:35:23.511Z,20.40
2022-12-09T13:37:52.715Z,20.27
2022-12-09T13:40:33.586Z,19.75
2022-12-09T13:43:05.169Z,20.95
2022-12-09T13:45:48.813Z,20.17
2022-12-09T13:48:17.533Z,19.95
2022-12-09T13:51:00.846Z,20.17
2022-12-09T13:53:33.969Z,20.70
2022-12-09T13:56:02.644Z,20.75
2022-12-09T13:58:49.091Z,20.75
2022-12-09T14:01:28.934Z,20.65
2022-12-09T14:04:12.055Z,20.20
2022-12-09T14:06:46.032Z,18.98
2022-12-09T14:09:28.533Z,22.55
2022-12-09T14:11:58.104Z,21.90
2022-12-09T14:14:26.595Z,24.95
2022-12-09T14:16:55.544Z,21.80
2022-12-09T14:19:27.004Z,23.05
2022-12-09T14:22:17.327Z,25.17
2022-12-09T14:24:53.042Z,27.52
2022-12-09T14:27:21.986Z,26.88
2022-12-09T14:29:54.467Z,27.38
2022-12-09T14:32:23.353Z,27.67
2022-12-09T14:35:00.850Z,26.90
2022-12-09T14:37:43.768Z,27.52
2022-12-09T14:40:14.812Z,27.70
2022-12-09T14:42:47.046Z,27.75
2022-12-09T14:45:30.228Z,27.98
2022-12-09T14:47:59.321Z,26.45
2022-12-09T14:50:28.928Z,27.52
2022-12-09T14:53:02.781Z,27.33
2022-12-09T14:55:33.706Z,27.08
2022-12-09T14:58:04.666Z,26.05
2022-12-09T15:00:41.315Z,26.40
2022-12-09T15:03:42.766Z,28.08
2022-12-09T15:06:15.282Z,26.63
2022-12-09T15:08:43.234Z,28.13
2022-12-09T15:11:14.505Z,26.75
2022-12-09T15:13:43.370Z,25.95
2022-12-09T15:16:12.718Z,26.73
2022-12-09T15:18:42.673Z,28.23
2022-12-09T15:21:10.757Z,29.05
2022-12-09T15:23:40.189Z,26.17
2022-12-09T15:26:09.811Z,28.07
2022-12-09T15:28:39.791Z,25.92
2022-12-09T15:31:15.339Z,26.38
2022-12-09T15:33:43.863Z,27.15
2022-12-09T15:36:19.520Z,26.98
2022-12-09T15:38:51.499Z,26.38
2022-12-09T15:41:39.044Z,27.30
2022-12-09T15:44:09.857Z,26.70
2022-12-09T15:49:06.445Z,24.77
2022-12-09T15:51:37.305Z,25.42
2022-12-09T15:54:08.444Z,25.17
2022-12-09T15:57:04.507Z,27.15
2022-12-09T15:59:50.942Z,25.75
2022-12-09T16:02:24.126Z,27.63
2022-12-09T16:04:55.297Z,27.33
2022-12-09T16:07:25.378Z,24.65
2022-12-09T16:10:12.072Z,24.83
2022-12-09T16:12:41.224Z,24.17
2022-12-09T16:15:10.509Z,26.08
2022-12-09T16:17:52.984Z,25.88
2022-12-09T16:20:33.740Z,26.92
2022-12-09T16:23:06.401Z,26.77
2022-12-09T16:25:43.394Z,27.27
2022-12-09T16:28:21.548Z,27.52
2022-12-09T16:30:51.051Z,25.92
2022-12-09T16:33:24.597Z,27.95
2022-12-09T16:35:58.550Z,27.15
2022-12-09T16:38:26.900Z,25.15
2022-12-09T16:40:54.907Z,26.63
2022-12-09T16:43:23.799Z,26.50
2022-12-09T16:45:55.652Z,26.88
2022-12-09T16:48:24.735Z,24.85
2022-12-09T16:51:12.507Z,25.48
2022-12-09T16:53:44.950Z,24.58
2022-12-09T16:56:33.101Z,25.48
2022-12-09T16:59:03.933Z,27.33
2022-12-09T17:01:35.162Z,26.90
2022-12-09T17:04:05.653Z,27.83
2022-12-09T17:09:10.319Z,29.23
2022-12-09T17:11:38.118Z,29.55
2022-12-09T17:14:06.971Z,27.42
2022-12-09T17:16:38.091Z,29.20
2022-12-09T17:19:06.431Z,30.15
2022-12-09T17:21:36.748Z,29.05
2022-12-09T17:26:36.032Z,28.73
2022-12-09T17:29:04.855Z,27.15
2022-12-09T17:31:34.412Z,28.00
2022-12-09T17:34:02.190Z,26.67
2022-12-09T17:36:29.996Z,29.40
2022-12-09T17:39:03.460Z,27.98
2022-12-09T17:41:31.746Z,27.70
2022-12-09T17:44:05.638Z,27.63
2022-12-09T17:46:35.872Z,27.52
2022-12-09T17:49:05.135Z,27.15
2022-12-09T17:51:36.294Z,25.65
2022-12-09T17:54:05.805Z,28.15
2022-12-09T17:56:34.839Z,27.88
2022-12-09T17:59:10.050Z,28.13
2022-12-09T18:01:38.822Z,27.30
2022-12-09T18:04:09.727Z,28.00
2022-12-09T18:06:43.709Z,28.90
2022-12-09T18:09:13.369Z,26.63
2022-12-09T18:11:41.260Z,28.98
2022-12-09T18:14:11.317Z,27.85
2022-12-09T18:19:10.833Z,27.13
2022-12-09T18:24:06.221Z,26.40
2022-12-09T18:26:41.590Z,29.05
2022-12-09T18:29:10.611Z,27.17
2022-12-09T18:31:40.214Z,27.85
2022-12-09T18:34:07.860Z,28.85
2022-12-09T18:36:35.870Z,25.85
2022-12-09T18:39:04.804Z,26.92
2022-12-09T18:41:33.782Z,25.63
2022-12-09T18:44:06.851Z,26.58
2022-12-09T18:46:37.641Z,27.55
2022-12-09T18:49:07.750Z,29.17
2022-12-09T18:51:35.844Z,26.25
2022-12-09T18:54:04.914Z,30.10
2022-12-09T18:56:34.573Z,32.97
2022-12-09T18:59:06.996Z,29.33
2022-12-09T19:01:43.294Z,26.98
2022-12-09T19:04:17.415Z,28.95
2022-12-09T19:06:46.617Z,27.75
2022-12-09T19:09:28.606Z,28.00
2022-12-09T19:11:56.585Z,28.63
2022-12-09T19:14:24.897Z,27.42
2022-12-09T19:16:53.273Z,27.15
2022-12-09T19:19:22.674Z,29.85
2022-12-09T19:21:51.254Z,28.70
2022-12-09T19:24:20.727Z,28.85
2022-12-09T19:26:48.677Z,28.97
2022-12-09T19:29:18.256Z,28.05
2022-12-09T19:31:47.121Z,27.52
2022-12-09T19:34:15.035Z,27.65
2022-12-09T19:36:43.124Z,28.33
2022-12-09T19:39:11.503Z,27.52
2022-12-09T19:41:40.656Z,28.65
2022-12-09T19:44:08.944Z,29.60
2022-12-09T19:46:38.583Z,29.33
2022-12-09T19:49:06.620Z,28.92
2022-12-09T19:51:36.362Z,30.00
2022-12-09T19:54:05.358Z,29.38
2022-12-09T19:56:34.042Z,30.20
2022-12-09T19:59:02.380Z,31.38
2022-12-09T20:01:37.730Z,30.70
2022-12-09T20:04:46.414Z,31.73
2022-12-09T20:06:57.535Z,34.13
2022-12-09T20:09:25.234Z,32.65
2022-12-09T20:11:53.157Z,33.85
2022-12-09T20:14:21.121Z,33.38
2022-12-09T20:16:49.856Z,32.80
2022-12-09T20:19:18.282Z,31.40
2022-12-09T20:21:46.247Z,34.42
2022-12-09T20:24:14.189Z,31.58
2022-12-09T20:26:42.095Z,30.13
2022-12-09T20:29:11.131Z,30.08
2022-12-09T20:31:39.516Z,29.83
2022-12-09T20:34:09.573Z,29.92
2022-12-09T20:36:39.084Z,30.23
2022-12-09T20:39:12.798Z,29.23
2022-12-09T20:41:42.563Z,28.75
2022-12-09T20:44:10.692Z,29.17
2022-12-09T20:46:39.269Z,30.30
2022-12-09T20:49:07.033Z,28.58
2022-12-09T20:51:36.883Z,29.30
2022-12-09T20:54:08.114Z,29.20
2022-12-09T20:56:36.009Z,26.23
2022-12-09T20:59:05.246Z,28.95
2022-12-09T21:01:36.776Z,28.02
2022-12-09T21:04:06.502Z,26.13
2022-12-09T21:06:37.037Z,26.17
2022-12-09T21:09:06.887Z,24.80
2022-12-09T21:11:40.748Z,25.08
2022-12-09T21:14:09.644Z,25.25
2022-12-09T21:16:41.259Z,27.83
2022-12-09T21:19:12.452Z,27.83
2022-12-09T21:21:41.289Z,27.17
2022-12-09T21:24:10.875Z,25.65
2022-12-09T21:26:39.007Z,28.80
2022-12-09T21:29:08.526Z,27.45
2022-12-09T21:31:37.562Z,29.55
2022-12-09T21:34:10.001Z,31.13
2022-12-09T21:36:39.635Z,27.85
2022-12-09T21:39:09.133Z,29.25
2022-12-09T21:41:38.004Z,30.60
2022-12-09T21:44:06.659Z,29.58
2022-12-09T21:46:36.147Z,28.38
2022-12-09T21:49:06.132Z,28.45
2022-12-09T21:51:36.429Z,30.75
2022-12-09T21:56:36.253Z,29.88
2022-12-09T21:59:06.416Z,28.77
2022-12-09T22:01:36.870Z,29.98
2022-12-09T22:04:08.416Z,28.42
2022-12-09T22:06:36.455Z,29.48
2022-12-09T22:09:05.446Z,30.67
2022-12-09T22:11:34.884Z,31.23
2022-12-09T22:14:03.917Z,29.35
2022-12-09T22:16:34.080Z,29.02
2022-12-09T22:19:03.781Z,29.13
2022-12-09T22:21:34.884Z,30.40
2022-12-09T22:24:04.997Z,30.58
2022-12-09T22:26:33.746Z,31.50
2022-12-09T22:29:03.265Z,30.95
2022-12-09T22:31:34.416Z,28.85
2022-12-09T22:34:05.244Z,32.17
2022-12-09T22:36:37.213Z,31.92
2022-12-09T22:39:13.165Z,33.22
2022-12-09T22:41:41.928Z,31.50
2022-12-09T22:44:09.584Z,31.42
2022-12-09T22:46:37.453Z,30.27
2022-12-09T22:49:06.555Z,31.38
2022-12-09T22:51:37.621Z,32.53
2022-12-09T22:54:06.617Z,32.50
2022-12-09T22:56:37.229Z,34.08
2022-12-09T22:59:05.387Z,33.30
2022-12-09T23:01:36.787Z,32.13
2022-12-09T23:04:13.128Z,30.10
2022-12-09T23:06:41.194Z,32.75
2022-12-09T23:09:10.759Z,32.67
2022-12-09T23:11:40.394Z,32.17
2022-12-09T23:14:08.122Z,29.98
2022-12-09T23:16:36.556Z,31.67
2022-12-09T23:19:04.784Z,29.55
2022-12-09T23:21:37.234Z,29.83
2022-12-09T23:24:07.592Z,29.10
2022-12-09T23:29:06.072Z,30.27
2022-12-09T23:31:38.107Z,29.30
2022-12-09T23:34:12.366Z,31.08
2022-12-09T23:36:41.432Z,30.85
2022-12-09T23:39:11.172Z,31.35
2022-12-09T23:41:39.831Z,30.88
2022-12-09T23:44:18.957Z,29.05
2022-12-09T23:46:47.120Z,29.10
2022-12-09T23:49:15.373Z,29.73
2022-12-09T23:51:44.208Z,28.90
2022-12-09T23:54:14.735Z,28.63
2022-12-09T23:56:44.737Z,29.80
2022-12-09T23:59:14.195Z,29.92
